sensor_id;sensor_type;location;lat;lon;timestamp;P1;durP1;ratioP1;P2;durP2;ratioP2
58553;SDS011;48119;53.218;6.576;2023-04-06T00:01:59;9.55;;;5.78;;
58553;SDS011;48119;53.218;6.576;2023-04-06T00:04:25;7.55;;;6.03;;
58553;SDS011;48119;53.218;6.576;2023-04-06T00:06:51;8.68;;;6.40;;
58553;SDS011;48119;53.218;6.576;2023-04-06T00:09:17;10.80;;;6.20;;
58553;SDS011;48119;53.218;6.576;2023-04-06T00:11:43;7.65;;;5.55;;
58553;SDS011;48119;53.218;6.576;2023-04-06T00:14:09;10.40;;;6.55;;
58553;SDS011;48119;53.218;6.576;2023-04-06T00:16:35;10.75;;;6.75;;
58553;SDS011;48119;53.218;6.576;2023-04-06T00:19:01;14.52;;;6.50;;
58553;SDS011;48119;53.218;6.576;2023-04-06T00:21:26;9.77;;;6.30;;
58553;SDS011;48119;53.218;6.576;2023-04-06T00:23:52;7.90;;;6.57;;
58553;SDS011;48119;53.218;6.576;2023-04-06T00:26:18;8.52;;;6.50;;
58553;SDS011;48119;53.218;6.576;2023-04-06T00:28:44;9.50;;;6.00;;
58553;SDS011;48119;53.218;6.576;2023-04-06T00:31:10;10.70;;;6.80;;
58553;SDS011;48119;53.218;6.576;2023-04-06T00:33:36;9.52;;;5.93;;
58553;SDS011;48119;53.218;6.576;2023-04-06T00:36:02;11.45;;;7.13;;
58553;SDS011;48119;53.218;6.576;2023-04-06T00:38:28;10.63;;;6.75;;
58553;SDS011;48119;53.218;6.576;2023-04-06T00:40:53;10.68;;;6.57;;
58553;SDS011;48119;53.218;6.576;2023-04-06T00:43:19;9.82;;;6.80;;
58553;SDS011;48119;53.218;6.576;2023-04-06T00:45:46;12.45;;;6.88;;
58553;SDS011;48119;53.218;6.576;2023-04-06T00:48:12;11.52;;;7.03;;
58553;SDS011;48119;53.218;6.576;2023-04-06T00:50:38;12.55;;;7.65;;
58553;SDS011;48119;53.218;6.576;2023-04-06T00:53:04;8.98;;;5.82;;
58553;SDS011;48119;53.218;6.576;2023-04-06T00:55:30;10.75;;;5.78;;
58553;SDS011;48119;53.218;6.576;2023-04-06T00:57:56;10.82;;;6.22;;
58553;SDS011;48119;53.218;6.576;2023-04-06T01:00:25;11.45;;;6.68;;
58553;SDS011;48119;53.218;6.576;2023-04-06T01:02:50;10.07;;;6.47;;
58553;SDS011;48119;53.218;6.576;2023-04-06T01:05:17;9.48;;;7.15;;
58553;SDS011;48119;53.218;6.576;2023-04-06T01:07:43;7.95;;;6.13;;
58553;SDS011;48119;53.218;6.576;2023-04-06T01:10:09;9.73;;;6.97;;
58553;SDS011;48119;53.218;6.576;2023-04-06T01:12:35;13.13;;;7.85;;
58553;SDS011;48119;53.218;6.576;2023-04-06T01:15:02;10.02;;;7.07;;
58553;SDS011;48119;53.218;6.576;2023-04-06T01:17:29;9.45;;;6.72;;
58553;SDS011;48119;53.218;6.576;2023-04-06T01:19:55;8.77;;;7.05;;
58553;SDS011;48119;53.218;6.576;2023-04-06T01:22:20;10.45;;;6.93;;
58553;SDS011;48119;53.218;6.576;2023-04-06T01:24:46;16.23;;;8.65;;
58553;SDS011;48119;53.218;6.576;2023-04-06T01:27:12;10.18;;;6.95;;
58553;SDS011;48119;53.218;6.576;2023-04-06T01:29:41;11.00;;;7.13;;
58553;SDS011;48119;53.218;6.576;2023-04-06T01:32:10;10.38;;;6.57;;
58553;SDS011;48119;53.218;6.576;2023-04-06T01:34:36;12.50;;;7.97;;
58553;SDS011;48119;53.218;6.576;2023-04-06T01:37:04;11.63;;;6.70;;
58553;SDS011;48119;53.218;6.576;2023-04-06T01:39:30;9.55;;;6.90;;
58553;SDS011;48119;53.218;6.576;2023-04-06T01:41:56;11.02;;;6.85;;
58553;SDS011;48119;53.218;6.576;2023-04-06T01:44:22;11.15;;;6.93;;
58553;SDS011;48119;53.218;6.576;2023-04-06T01:46:47;14.57;;;7.20;;
58553;SDS011;48119;53.218;6.576;2023-04-06T01:49:13;9.57;;;7.40;;
58553;SDS011;48119;53.218;6.576;2023-04-06T01:51:39;10.35;;;6.95;;
58553;SDS011;48119;53.218;6.576;2023-04-06T01:54:05;12.65;;;6.53;;
58553;SDS011;48119;53.218;6.576;2023-04-06T01:56:31;9.68;;;6.63;;
58553;SDS011;48119;53.218;6.576;2023-04-06T01:58:57;10.85;;;6.55;;
58553;SDS011;48119;53.218;6.576;2023-04-06T02:01:22;9.98;;;7.13;;
58553;SDS011;48119;53.218;6.576;2023-04-06T02:03:48;11.23;;;6.97;;
58553;SDS011;48119;53.218;6.576;2023-04-06T02:06:17;11.90;;;6.80;;
58553;SDS011;48119;53.218;6.576;2023-04-06T02:08:42;9.48;;;6.55;;
58553;SDS011;48119;53.218;6.576;2023-04-06T02:11:08;10.20;;;7.50;;
58553;SDS011;48119;53.218;6.576;2023-04-06T02:13:34;10.40;;;6.97;;
58553;SDS011;48119;53.218;6.576;2023-04-06T02:16:00;8.18;;;6.38;;
58553;SDS011;48119;53.218;6.576;2023-04-06T02:18:27;11.63;;;7.18;;
58553;SDS011;48119;53.218;6.576;2023-04-06T02:20:55;11.48;;;7.35;;
58553;SDS011;48119;53.218;6.576;2023-04-06T02:23:21;10.30;;;6.65;;
58553;SDS011;48119;53.218;6.576;2023-04-06T02:25:47;15.95;;;7.35;;
58553;SDS011;48119;53.218;6.576;2023-04-06T02:28:12;8.50;;;6.57;;
58553;SDS011;48119;53.218;6.576;2023-04-06T02:30:38;9.57;;;6.65;;
58553;SDS011;48119;53.218;6.576;2023-04-06T02:33:04;8.23;;;6.55;;
58553;SDS011;48119;53.218;6.576;2023-04-06T02:35:30;12.57;;;6.82;;
58553;SDS011;48119;53.218;6.576;2023-04-06T02:37:56;12.50;;;6.85;;
58553;SDS011;48119;53.218;6.576;2023-04-06T02:40:22;10.57;;;7.22;;
58553;SDS011;48119;53.218;6.576;2023-04-06T02:42:48;11.43;;;7.03;;
58553;SDS011;48119;53.218;6.576;2023-04-06T02:45:14;13.15;;;6.68;;
58553;SDS011;48119;53.218;6.576;2023-04-06T02:47:40;8.57;;;5.90;;
58553;SDS011;48119;53.218;6.576;2023-04-06T02:50:06;9.70;;;6.80;;
58553;SDS011;48119;53.218;6.576;2023-04-06T02:52:32;9.63;;;7.10;;
58553;SDS011;48119;53.218;6.576;2023-04-06T02:54:59;9.15;;;7.10;;
58553;SDS011;48119;53.218;6.576;2023-04-06T02:57:25;8.38;;;6.07;;
58553;SDS011;48119;53.218;6.576;2023-04-06T02:59:51;10.65;;;7.25;;
58553;SDS011;48119;53.218;6.576;2023-04-06T03:02:17;8.27;;;6.68;;
58553;SDS011;48119;53.218;6.576;2023-04-06T03:04:43;15.85;;;7.93;;
58553;SDS011;48119;53.218;6.576;2023-04-06T03:07:09;11.38;;;7.38;;
58553;SDS011;48119;53.218;6.576;2023-04-06T03:09:36;10.52;;;6.78;;
58553;SDS011;48119;53.218;6.576;2023-04-06T03:12:02;9.85;;;7.10;;
58553;SDS011;48119;53.218;6.576;2023-04-06T03:14:28;10.23;;;7.80;;
58553;SDS011;48119;53.218;6.576;2023-04-06T03:16:54;9.45;;;7.43;;
58553;SDS011;48119;53.218;6.576;2023-04-06T03:19:20;12.18;;;8.38;;
58553;SDS011;48119;53.218;6.576;2023-04-06T03:21:48;10.05;;;7.90;;
58553;SDS011;48119;53.218;6.576;2023-04-06T03:24:14;12.43;;;8.05;;
58553;SDS011;48119;53.218;6.576;2023-04-06T03:26:40;11.43;;;7.97;;
58553;SDS011;48119;53.218;6.576;2023-04-06T03:29:06;9.63;;;7.05;;
58553;SDS011;48119;53.218;6.576;2023-04-06T03:31:32;12.88;;;7.85;;
58553;SDS011;48119;53.218;6.576;2023-04-06T03:33:58;9.85;;;7.45;;
58553;SDS011;48119;53.218;6.576;2023-04-06T03:36:24;11.63;;;7.38;;
58553;SDS011;48119;53.218;6.576;2023-04-06T03:38:51;12.38;;;7.55;;
58553;SDS011;48119;53.218;6.576;2023-04-06T03:41:18;9.43;;;6.85;;
58553;SDS011;48119;53.218;6.576;2023-04-06T03:43:44;11.35;;;7.53;;
58553;SDS011;48119;53.218;6.576;2023-04-06T03:46:10;11.63;;;8.48;;
58553;SDS011;48119;53.218;6.576;2023-04-06T03:48:36;12.40;;;8.27;;
58553;SDS011;48119;53.218;6.576;2023-04-06T03:51:02;11.20;;;8.40;;
58553;SDS011;48119;53.218;6.576;2023-04-06T03:53:28;12.27;;;7.90;;
58553;SDS011;48119;53.218;6.576;2023-04-06T03:55:54;9.43;;;7.28;;
58553;SDS011;48119;53.218;6.576;2023-04-06T03:58:20;11.35;;;6.97;;
58553;SDS011;48119;53.218;6.576;2023-04-06T04:00:46;10.18;;;6.22;;
58553;SDS011;48119;53.218;6.576;2023-04-06T04:03:11;10.38;;;6.35;;
58553;SDS011;48119;53.218;6.576;2023-04-06T04:05:37;11.48;;;6.80;;
58553;SDS011;48119;53.218;6.576;2023-04-06T04:08:03;8.85;;;6.47;;
58553;SDS011;48119;53.218;6.576;2023-04-06T04:10:31;10.13;;;6.95;;
58553;SDS011;48119;53.218;6.576;2023-04-06T04:12:57;10.02;;;6.03;;
58553;SDS011;48119;53.218;6.576;2023-04-06T04:15:23;9.85;;;6.03;;
58553;SDS011;48119;53.218;6.576;2023-04-06T04:17:48;10.93;;;7.20;;
58553;SDS011;48119;53.218;6.576;2023-04-06T04:20:15;13.40;;;6.65;;
58553;SDS011;48119;53.218;6.576;2023-04-06T04:22:41;9.93;;;6.07;;
58553;SDS011;48119;53.218;6.576;2023-04-06T04:25:08;10.85;;;6.50;;
58553;SDS011;48119;53.218;6.576;2023-04-06T04:27:34;12.73;;;7.35;;
58553;SDS011;48119;53.218;6.576;2023-04-06T04:30:00;11.32;;;7.30;;
58553;SDS011;48119;53.218;6.576;2023-04-06T04:32:25;9.52;;;7.32;;
58553;SDS011;48119;53.218;6.576;2023-04-06T04:34:52;11.20;;;7.43;;
58553;SDS011;48119;53.218;6.576;2023-04-06T04:37:18;12.93;;;7.72;;
58553;SDS011;48119;53.218;6.576;2023-04-06T04:39:45;11.65;;;7.53;;
58553;SDS011;48119;53.218;6.576;2023-04-06T04:42:10;11.25;;;7.70;;
58553;SDS011;48119;53.218;6.576;2023-04-06T04:44:36;14.07;;;7.03;;
58553;SDS011;48119;53.218;6.576;2023-04-06T04:47:02;13.15;;;7.70;;
58553;SDS011;48119;53.218;6.576;2023-04-06T04:49:28;11.20;;;6.90;;
58553;SDS011;48119;53.218;6.576;2023-04-06T04:51:53;9.65;;;7.55;;
58553;SDS011;48119;53.218;6.576;2023-04-06T04:54:19;11.10;;;7.13;;
58553;SDS011;48119;53.218;6.576;2023-04-06T04:56:45;16.60;;;8.13;;
58553;SDS011;48119;53.218;6.576;2023-04-06T04:59:11;10.65;;;6.45;;
58553;SDS011;48119;53.218;6.576;2023-04-06T05:01:37;10.10;;;6.05;;
58553;SDS011;48119;53.218;6.576;2023-04-06T05:04:02;10.68;;;6.85;;
58553;SDS011;48119;53.218;6.576;2023-04-06T05:06:28;12.25;;;7.30;;
58553;SDS011;48119;53.218;6.576;2023-04-06T05:08:54;9.35;;;6.68;;
58553;SDS011;48119;53.218;6.576;2023-04-06T05:11:20;11.88;;;7.70;;
58553;SDS011;48119;53.218;6.576;2023-04-06T05:13:46;10.25;;;6.40;;
58553;SDS011;48119;53.218;6.576;2023-04-06T05:16:12;12.77;;;7.32;;
58553;SDS011;48119;53.218;6.576;2023-04-06T05:18:38;10.20;;;6.65;;
58553;SDS011;48119;53.218;6.576;2023-04-06T05:21:04;12.73;;;7.20;;
58553;SDS011;48119;53.218;6.576;2023-04-06T05:23:30;9.30;;;7.65;;
58553;SDS011;48119;53.218;6.576;2023-04-06T05:25:55;12.23;;;7.97;;
58553;SDS011;48119;53.218;6.576;2023-04-06T05:28:21;14.77;;;8.40;;
58553;SDS011;48119;53.218;6.576;2023-04-06T05:30:47;9.95;;;7.75;;
58553;SDS011;48119;53.218;6.576;2023-04-06T05:33:13;12.27;;;8.02;;
58553;SDS011;48119;53.218;6.576;2023-04-06T05:35:41;11.90;;;7.70;;
58553;SDS011;48119;53.218;6.576;2023-04-06T05:38:07;9.57;;;7.85;;
58553;SDS011;48119;53.218;6.576;2023-04-06T05:40:35;13.55;;;7.28;;
58553;SDS011;48119;53.218;6.576;2023-04-06T05:43:03;13.98;;;7.93;;
58553;SDS011;48119;53.218;6.576;2023-04-06T05:45:28;11.55;;;7.32;;
58553;SDS011;48119;53.218;6.576;2023-04-06T05:47:55;18.83;;;6.95;;
58553;SDS011;48119;53.218;6.576;2023-04-06T05:50:20;12.75;;;7.63;;
58553;SDS011;48119;53.218;6.576;2023-04-06T05:52:47;14.10;;;8.15;;
58553;SDS011;48119;53.218;6.576;2023-04-06T05:55:13;13.73;;;7.45;;
58553;SDS011;48119;53.218;6.576;2023-04-06T05:57:39;14.70;;;7.75;;
58553;SDS011;48119;53.218;6.576;2023-04-06T06:00:05;13.23;;;7.28;;
58553;SDS011;48119;53.218;6.576;2023-04-06T06:02:34;12.20;;;7.55;;
58553;SDS011;48119;53.218;6.576;2023-04-06T06:05:00;15.43;;;8.23;;
58553;SDS011;48119;53.218;6.576;2023-04-06T06:07:25;13.15;;;8.10;;
58553;SDS011;48119;53.218;6.576;2023-04-06T06:09:51;17.38;;;7.53;;
58553;SDS011;48119;53.218;6.576;2023-04-06T06:12:17;11.63;;;7.13;;
58553;SDS011;48119;53.218;6.576;2023-04-06T06:14:43;15.98;;;8.00;;
58553;SDS011;48119;53.218;6.576;2023-04-06T06:17:09;11.50;;;6.80;;
58553;SDS011;48119;53.218;6.576;2023-04-06T06:19:34;12.68;;;7.38;;
58553;SDS011;48119;53.218;6.576;2023-04-06T06:22:00;17.60;;;8.23;;
58553;SDS011;48119;53.218;6.576;2023-04-06T06:24:27;18.67;;;8.38;;
58553;SDS011;48119;53.218;6.576;2023-04-06T06:26:53;8.88;;;6.50;;
58553;SDS011;48119;53.218;6.576;2023-04-06T06:29:19;16.73;;;8.50;;
58553;SDS011;48119;53.218;6.576;2023-04-06T06:31:45;17.77;;;7.95;;
58553;SDS011;48119;53.218;6.576;2023-04-06T06:34:11;17.48;;;8.38;;
58553;SDS011;48119;53.218;6.576;2023-04-06T06:36:37;12.43;;;7.70;;
58553;SDS011;48119;53.218;6.576;2023-04-06T06:39:03;13.23;;;7.45;;
58553;SDS011;48119;53.218;6.576;2023-04-06T06:41:29;13.55;;;6.85;;
58553;SDS011;48119;53.218;6.576;2023-04-06T06:43:55;10.50;;;7.05;;
58553;SDS011;48119;53.218;6.576;2023-04-06T06:46:21;11.50;;;7.55;;
58553;SDS011;48119;53.218;6.576;2023-04-06T06:48:46;13.70;;;8.23;;
58553;SDS011;48119;53.218;6.576;2023-04-06T06:51:12;14.45;;;7.22;;
58553;SDS011;48119;53.218;6.576;2023-04-06T06:53:38;16.73;;;7.75;;
58553;SDS011;48119;53.218;6.576;2023-04-06T06:56:04;10.50;;;7.85;;
58553;SDS011;48119;53.218;6.576;2023-04-06T06:58:30;10.98;;;7.78;;
58553;SDS011;48119;53.218;6.576;2023-04-06T07:00:56;10.80;;;7.25;;
58553;SDS011;48119;53.218;6.576;2023-04-06T07:03:23;11.13;;;8.18;;
58553;SDS011;48119;53.218;6.576;2023-04-06T07:05:49;10.55;;;7.15;;
58553;SDS011;48119;53.218;6.576;2023-04-06T07:08:18;13.57;;;7.68;;
58553;SDS011;48119;53.218;6.576;2023-04-06T07:10:45;17.90;;;8.13;;
58553;SDS011;48119;53.218;6.576;2023-04-06T07:13:11;12.93;;;7.60;;
58553;SDS011;48119;53.218;6.576;2023-04-06T07:15:37;16.17;;;7.80;;
58553;SDS011;48119;53.218;6.576;2023-04-06T07:18:03;12.70;;;7.43;;
58553;SDS011;48119;53.218;6.576;2023-04-06T07:20:29;10.80;;;6.75;;
58553;SDS011;48119;53.218;6.576;2023-04-06T07:22:54;13.95;;;7.72;;
58553;SDS011;48119;53.218;6.576;2023-04-06T07:25:20;10.25;;;7.32;;
58553;SDS011;48119;53.218;6.576;2023-04-06T07:27:46;12.27;;;7.55;;
58553;SDS011;48119;53.218;6.576;2023-04-06T07:30:13;14.65;;;7.43;;
58553;SDS011;48119;53.218;6.576;2023-04-06T07:32:39;10.40;;;7.07;;
58553;SDS011;48119;53.218;6.576;2023-04-06T07:35:05;10.10;;;7.25;;
58553;SDS011;48119;53.218;6.576;2023-04-06T07:37:31;10.50;;;7.80;;
58553;SDS011;48119;53.218;6.576;2023-04-06T07:39:56;14.65;;;7.32;;
58553;SDS011;48119;53.218;6.576;2023-04-06T07:42:22;14.57;;;7.85;;
58553;SDS011;48119;53.218;6.576;2023-04-06T07:44:48;15.30;;;7.65;;
58553;SDS011;48119;53.218;6.576;2023-04-06T07:47:14;10.65;;;7.38;;
58553;SDS011;48119;53.218;6.576;2023-04-06T07:49:40;12.35;;;8.32;;
58553;SDS011;48119;53.218;6.576;2023-04-06T07:52:06;13.95;;;8.48;;
58553;SDS011;48119;53.218;6.576;2023-04-06T07:54:32;12.25;;;8.85;;
58553;SDS011;48119;53.218;6.576;2023-04-06T07:56:57;13.20;;;7.90;;
58553;SDS011;48119;53.218;6.576;2023-04-06T07:59:23;16.83;;;8.13;;
58553;SDS011;48119;53.218;6.576;2023-04-06T08:01:49;13.77;;;8.20;;
58553;SDS011;48119;53.218;6.576;2023-04-06T08:04:15;15.43;;;7.90;;
58553;SDS011;48119;53.218;6.576;2023-04-06T08:06:40;10.38;;;7.55;;
58553;SDS011;48119;53.218;6.576;2023-04-06T08:09:06;11.73;;;8.70;;
58553;SDS011;48119;53.218;6.576;2023-04-06T08:11:32;11.50;;;7.85;;
58553;SDS011;48119;53.218;6.576;2023-04-06T08:13:58;11.88;;;8.18;;
58553;SDS011;48119;53.218;6.576;2023-04-06T08:16:24;18.15;;;7.82;;
58553;SDS011;48119;53.218;6.576;2023-04-06T08:18:49;17.25;;;8.35;;
58553;SDS011;48119;53.218;6.576;2023-04-06T08:21:15;14.43;;;7.80;;
58553;SDS011;48119;53.218;6.576;2023-04-06T08:23:41;12.73;;;8.45;;
58553;SDS011;48119;53.218;6.576;2023-04-06T08:26:07;12.98;;;7.32;;
58553;SDS011;48119;53.218;6.576;2023-04-06T08:28:33;12.73;;;8.18;;
58553;SDS011;48119;53.218;6.576;2023-04-06T08:31:02;11.38;;;8.50;;
58553;SDS011;48119;53.218;6.576;2023-04-06T08:33:31;11.32;;;7.78;;
58553;SDS011;48119;53.218;6.576;2023-04-06T08:36:05;14.68;;;8.85;;
58553;SDS011;48119;53.218;6.576;2023-04-06T08:38:32;10.63;;;7.43;;
58553;SDS011;48119;53.218;6.576;2023-04-06T08:40:58;13.18;;;7.97;;
58553;SDS011;48119;53.218;6.576;2023-04-06T08:43:24;12.70;;;8.05;;
58553;SDS011;48119;53.218;6.576;2023-04-06T08:45:53;13.68;;;8.45;;
58553;SDS011;48119;53.218;6.576;2023-04-06T08:48:18;15.77;;;8.45;;
58553;SDS011;48119;53.218;6.576;2023-04-06T08:50:45;14.27;;;8.32;;
58553;SDS011;48119;53.218;6.576;2023-04-06T08:53:11;14.85;;;8.63;;
58553;SDS011;48119;53.218;6.576;2023-04-06T08:55:38;12.32;;;8.05;;
58553;SDS011;48119;53.218;6.576;2023-04-06T08:58:05;12.27;;;8.18;;
58553;SDS011;48119;53.218;6.576;2023-04-06T09:00:36;17.67;;;8.48;;
58553;SDS011;48119;53.218;6.576;2023-04-06T09:03:04;15.38;;;8.90;;
58553;SDS011;48119;53.218;6.576;2023-04-06T09:05:31;18.02;;;8.07;;
58553;SDS011;48119;53.218;6.576;2023-04-06T09:07:57;10.45;;;7.45;;
58553;SDS011;48119;53.218;6.576;2023-04-06T09:10:23;11.65;;;7.78;;
58553;SDS011;48119;53.218;6.576;2023-04-06T09:12:50;11.27;;;7.75;;
58553;SDS011;48119;53.218;6.576;2023-04-06T09:15:20;15.63;;;8.35;;
58553;SDS011;48119;53.218;6.576;2023-04-06T09:17:46;14.73;;;8.15;;
58553;SDS011;48119;53.218;6.576;2023-04-06T09:20:21;13.43;;;7.70;;
58553;SDS011;48119;53.218;6.576;2023-04-06T09:22:52;12.75;;;7.90;;
58553;SDS011;48119;53.218;6.576;2023-04-06T09:25:19;11.18;;;7.82;;
58553;SDS011;48119;53.218;6.576;2023-04-06T09:27:58;13.20;;;7.60;;
58553;SDS011;48119;53.218;6.576;2023-04-06T09:30:25;12.55;;;8.77;;
58553;SDS011;48119;53.218;6.576;2023-04-06T09:32:52;11.75;;;7.75;;
58553;SDS011;48119;53.218;6.576;2023-04-06T09:35:20;10.40;;;7.50;;
58553;SDS011;48119;53.218;6.576;2023-04-06T09:37:47;10.35;;;7.22;;
58553;SDS011;48119;53.218;6.576;2023-04-06T09:40:17;16.08;;;7.75;;
58553;SDS011;48119;53.218;6.576;2023-04-06T09:42:47;14.75;;;7.65;;
58553;SDS011;48119;53.218;6.576;2023-04-06T09:45:16;15.43;;;8.55;;
58553;SDS011;48119;53.218;6.576;2023-04-06T09:47:43;16.25;;;7.97;;
58553;SDS011;48119;53.218;6.576;2023-04-06T09:50:11;15.60;;;8.23;;
58553;SDS011;48119;53.218;6.576;2023-04-06T09:52:40;11.02;;;7.68;;
58553;SDS011;48119;53.218;6.576;2023-04-06T09:55:11;13.35;;;8.18;;
58553;SDS011;48119;53.218;6.576;2023-04-06T09:57:45;14.07;;;8.50;;
58553;SDS011;48119;53.218;6.576;2023-04-06T10:00:23;15.02;;;8.23;;
58553;SDS011;48119;53.218;6.576;2023-04-06T10:03:07;16.48;;;8.85;;
58553;SDS011;48119;53.218;6.576;2023-04-06T10:08:11;10.10;;;7.60;;
58553;SDS011;48119;53.218;6.576;2023-04-06T10:10:38;15.40;;;8.88;;
58553;SDS011;48119;53.218;6.576;2023-04-06T10:13:04;14.23;;;8.75;;
58553;SDS011;48119;53.218;6.576;2023-04-06T10:15:31;16.17;;;8.40;;
58553;SDS011;48119;53.218;6.576;2023-04-06T10:18:06;15.95;;;9.93;;
58553;SDS011;48119;53.218;6.576;2023-04-06T10:20:39;14.02;;;9.77;;
58553;SDS011;48119;53.218;6.576;2023-04-06T10:23:47;16.90;;;10.13;;
58553;SDS011;48119;53.218;6.576;2023-04-06T10:26:15;20.15;;;10.20;;
58553;SDS011;48119;53.218;6.576;2023-04-06T10:28:43;13.52;;;9.38;;
58553;SDS011;48119;53.218;6.576;2023-04-06T10:31:10;17.83;;;10.57;;
58553;SDS011;48119;53.218;6.576;2023-04-06T10:33:36;17.10;;;9.43;;
58553;SDS011;48119;53.218;6.576;2023-04-06T10:36:12;14.80;;;10.35;;
58553;SDS011;48119;53.218;6.576;2023-04-06T10:38:39;15.50;;;10.07;;
58553;SDS011;48119;53.218;6.576;2023-04-06T10:41:09;16.45;;;10.65;;
58553;SDS011;48119;53.218;6.576;2023-04-06T10:43:36;15.73;;;10.82;;
58553;SDS011;48119;53.218;6.576;2023-04-06T10:46:04;17.33;;;10.23;;
58553;SDS011;48119;53.218;6.576;2023-04-06T10:48:37;17.13;;;10.55;;
58553;SDS011;48119;53.218;6.576;2023-04-06T10:51:12;15.23;;;11.05;;
58553;SDS011;48119;53.218;6.576;2023-04-06T10:53:45;20.45;;;11.27;;
58553;SDS011;48119;53.218;6.576;2023-04-06T10:56:16;15.40;;;10.93;;
58553;SDS011;48119;53.218;6.576;2023-04-06T10:58:49;15.60;;;10.88;;
58553;SDS011;48119;53.218;6.576;2023-04-06T11:01:22;20.48;;;13.65;;
58553;SDS011;48119;53.218;6.576;2023-04-06T11:03:50;18.35;;;12.32;;
58553;SDS011;48119;53.218;6.576;2023-04-06T11:06:18;17.70;;;12.00;;
58553;SDS011;48119;53.218;6.576;2023-04-06T11:08:48;19.02;;;12.45;;
58553;SDS011;48119;53.218;6.576;2023-04-06T11:11:16;21.52;;;12.60;;
58553;SDS011;48119;53.218;6.576;2023-04-06T11:16:18;23.48;;;14.20;;
58553;SDS011;48119;53.218;6.576;2023-04-06T11:21:17;23.70;;;17.88;;
58553;SDS011;48119;53.218;6.576;2023-04-06T11:23:43;24.98;;;16.85;;
58553;SDS011;48119;53.218;6.576;2023-04-06T11:26:10;28.77;;;19.27;;
58553;SDS011;48119;53.218;6.576;2023-04-06T11:28:38;24.92;;;16.58;;
58553;SDS011;48119;53.218;6.576;2023-04-06T11:31:05;27.42;;;17.52;;
58553;SDS011;48119;53.218;6.576;2023-04-06T11:33:35;29.13;;;17.98;;
58553;SDS011;48119;53.218;6.576;2023-04-06T11:36:02;32.08;;;19.70;;
58553;SDS011;48119;53.218;6.576;2023-04-06T11:38:29;30.67;;;19.52;;
58553;SDS011;48119;53.218;6.576;2023-04-06T11:40:55;27.85;;;17.85;;
58553;SDS011;48119;53.218;6.576;2023-04-06T11:43:30;22.20;;;17.50;;
58553;SDS011;48119;53.218;6.576;2023-04-06T11:46:02;26.83;;;18.95;;
58553;SDS011;48119;53.218;6.576;2023-04-06T11:48:28;26.60;;;18.67;;
58553;SDS011;48119;53.218;6.576;2023-04-06T11:50:55;25.48;;;18.08;;
58553;SDS011;48119;53.218;6.576;2023-04-06T11:53:23;27.27;;;19.17;;
58553;SDS011;48119;53.218;6.576;2023-04-06T11:55:48;27.85;;;17.92;;
58553;SDS011;48119;53.218;6.576;2023-04-06T11:58:14;27.25;;;18.25;;
58553;SDS011;48119;53.218;6.576;2023-04-06T12:00:40;27.67;;;18.13;;
58553;SDS011;48119;53.218;6.576;2023-04-06T12:03:10;33.03;;;19.27;;
58553;SDS011;48119;53.218;6.576;2023-04-06T12:05:38;31.08;;;19.67;;
58553;SDS011;48119;53.218;6.576;2023-04-06T12:08:05;29.10;;;19.48;;
58553;SDS011;48119;53.218;6.576;2023-04-06T12:10:30;26.55;;;17.75;;
58553;SDS011;48119;53.218;6.576;2023-04-06T12:12:56;25.60;;;18.52;;
58553;SDS011;48119;53.218;6.576;2023-04-06T12:15:22;26.17;;;19.20;;
58553;SDS011;48119;53.218;6.576;2023-04-06T12:17:48;28.27;;;17.73;;
58553;SDS011;48119;53.218;6.576;2023-04-06T12:20:14;26.27;;;18.25;;
58553;SDS011;48119;53.218;6.576;2023-04-06T12:22:40;26.48;;;17.85;;
58553;SDS011;48119;53.218;6.576;2023-04-06T12:25:06;31.67;;;19.60;;
58553;SDS011;48119;53.218;6.576;2023-04-06T12:27:32;25.58;;;17.95;;
58553;SDS011;48119;53.218;6.576;2023-04-06T12:29:58;31.58;;;18.13;;
58553;SDS011;48119;53.218;6.576;2023-04-06T12:32:24;26.10;;;18.42;;
58553;SDS011;48119;53.218;6.576;2023-04-06T12:34:53;26.48;;;19.17;;
58553;SDS011;48119;53.218;6.576;2023-04-06T12:37:19;28.17;;;20.23;;
58553;SDS011;48119;53.218;6.576;2023-04-06T12:39:45;26.33;;;17.88;;
58553;SDS011;48119;53.218;6.576;2023-04-06T12:42:11;24.60;;;17.30;;
58553;SDS011;48119;53.218;6.576;2023-04-06T12:44:38;25.92;;;16.63;;
58553;SDS011;48119;53.218;6.576;2023-04-06T12:47:04;27.52;;;17.83;;
58553;SDS011;48119;53.218;6.576;2023-04-06T12:49:32;23.98;;;15.73;;
58553;SDS011;48119;53.218;6.576;2023-04-06T12:51:58;23.50;;;15.68;;
58553;SDS011;48119;53.218;6.576;2023-04-06T12:54:23;25.88;;;17.67;;
58553;SDS011;48119;53.218;6.576;2023-04-06T12:56:54;26.92;;;17.58;;
58553;SDS011;48119;53.218;6.576;2023-04-06T12:59:21;29.92;;;18.45;;
58553;SDS011;48119;53.218;6.576;2023-04-06T13:01:47;25.95;;;17.85;;
58553;SDS011;48119;53.218;6.576;2023-04-06T13:04:13;29.02;;;18.95;;
58553;SDS011;48119;53.218;6.576;2023-04-06T13:06:39;25.15;;;17.73;;
58553;SDS011;48119;53.218;6.576;2023-04-06T13:09:05;30.23;;;18.40;;
58553;SDS011;48119;53.218;6.576;2023-04-06T13:11:30;31.27;;;19.13;;
58553;SDS011;48119;53.218;6.576;2023-04-06T13:13:56;23.77;;;16.67;;
58553;SDS011;48119;53.218;6.576;2023-04-06T13:16:22;26.00;;;16.95;;
58553;SDS011;48119;53.218;6.576;2023-04-06T13:18:48;29.65;;;18.52;;
58553;SDS011;48119;53.218;6.576;2023-04-06T13:21:16;28.10;;;18.20;;
58553;SDS011;48119;53.218;6.576;2023-04-06T13:23:42;27.48;;;18.95;;
58553;SDS011;48119;53.218;6.576;2023-04-06T13:26:09;27.52;;;18.95;;
58553;SDS011;48119;53.218;6.576;2023-04-06T13:28:36;27.63;;;16.77;;
58553;SDS011;48119;53.218;6.576;2023-04-06T13:31:03;27.75;;;19.13;;
58553;SDS011;48119;53.218;6.576;2023-04-06T13:33:30;23.30;;;16.88;;
58553;SDS011;48119;53.218;6.576;2023-04-06T13:35:56;27.27;;;18.27;;
58553;SDS011;48119;53.218;6.576;2023-04-06T13:38:22;22.42;;;16.05;;
58553;SDS011;48119;53.218;6.576;2023-04-06T13:40:51;27.58;;;19.65;;
58553;SDS011;48119;53.218;6.576;2023-04-06T13:43:17;28.50;;;17.35;;
58553;SDS011;48119;53.218;6.576;2023-04-06T13:45:49;24.23;;;17.08;;
58553;SDS011;48119;53.218;6.576;2023-04-06T13:48:16;24.83;;;17.60;;
58553;SDS011;48119;53.218;6.576;2023-04-06T13:50:42;26.65;;;18.33;;
58553;SDS011;48119;53.218;6.576;2023-04-06T13:53:09;25.42;;;18.23;;
58553;SDS011;48119;53.218;6.576;2023-04-06T13:55:34;25.67;;;16.92;;
58553;SDS011;48119;53.218;6.576;2023-04-06T13:58:01;26.40;;;18.20;;
58553;SDS011;48119;53.218;6.576;2023-04-06T14:00:26;23.17;;;14.77;;
58553;SDS011;48119;53.218;6.576;2023-04-06T14:02:55;23.65;;;14.90;;
58553;SDS011;48119;53.218;6.576;2023-04-06T14:05:22;28.00;;;13.48;;
58553;SDS011;48119;53.218;6.576;2023-04-06T14:07:49;18.75;;;13.32;;
58553;SDS011;48119;53.218;6.576;2023-04-06T14:10:15;18.73;;;12.88;;
58553;SDS011;48119;53.218;6.576;2023-04-06T14:12:41;21.92;;;13.95;;
58553;SDS011;48119;53.218;6.576;2023-04-06T14:15:10;17.25;;;12.15;;
58553;SDS011;48119;53.218;6.576;2023-04-06T14:17:36;23.15;;;14.73;;
58553;SDS011;48119;53.218;6.576;2023-04-06T14:20:03;20.50;;;12.05;;
58553;SDS011;48119;53.218;6.576;2023-04-06T14:22:30;18.70;;;11.43;;
58553;SDS011;48119;53.218;6.576;2023-04-06T14:24:56;18.92;;;13.00;;
58553;SDS011;48119;53.218;6.576;2023-04-06T14:27:24;18.20;;;12.60;;
58553;SDS011;48119;53.218;6.576;2023-04-06T14:29:50;19.35;;;12.13;;
58553;SDS011;48119;53.218;6.576;2023-04-06T14:32:16;20.58;;;12.70;;
58553;SDS011;48119;53.218;6.576;2023-04-06T14:34:42;21.40;;;12.82;;
58553;SDS011;48119;53.218;6.576;2023-04-06T14:37:08;23.27;;;12.93;;
58553;SDS011;48119;53.218;6.576;2023-04-06T14:39:33;19.88;;;12.57;;